sensor_id;sensor_type;location;lat;lon;timestamp;temperature;humidity
3562;DHT22;1795;52.074;4.754;2022-09-09T00:00:32;17.40;99.90
3562;DHT22;1795;52.074;4.754;2022-09-09T00:03:10;17.40;99.90
3562;DHT22;1795;52.074;4.754;2022-09-09T00:05:45;17.40;99.90
3562;DHT22;1795;52.074;4.754;2022-09-09T00:08:20;17.40;99.90
3562;DHT22;1795;52.074;4.754;2022-09-09T00:10:53;17.40;99.90
3562;DHT22;1795;52.074;4.754;2022-09-09T00:13:26;17.40;99.90
3562;DHT22;1795;52.074;4.754;2022-09-09T00:15:59;17.30;99.90
3562;DHT22;1795;52.074;4.754;2022-09-09T00:18:40;17.30;99.90
3562;DHT22;1795;52.074;4.754;2022-09-09T00:21:13;17.30;99.90
3562;DHT22;1795;52.074;4.754;2022-09-09T00:23:45;17.30;99.90
3562;DHT22;1795;52.074;4.754;2022-09-09T00:26:20;17.30;99.90
3562;DHT22;1795;52.074;4.754;2022-09-09T00:28:55;17.20;99.90
3562;DHT22;1795;52.074;4.754;2022-09-09T00:31:27;17.20;99.90
3562;DHT22;1795;52.074;4.754;2022-09-09T00:34:05;17.20;99.90
3562;DHT22;1795;52.074;4.754;2022-09-09T00:36:37;17.20;99.90
3562;DHT22;1795;52.074;4.754;2022-09-09T00:39:05;17.20;99.90
3562;DHT22;1795;52.074;4.754;2022-09-09T00:41:47;17.20;99.90
3562;DHT22;1795;52.074;4.754;2022-09-09T00:44:27;17.20;99.90
3562;DHT22;1795;52.074;4.754;2022-09-09T00:47:09;17.10;99.90
3562;DHT22;1795;52.074;4.754;2022-09-09T00:49:52;17.10;99.90
3562;DHT22;1795;52.074;4.754;2022-09-09T00:52:33;17.10;99.90
3562;DHT22;1795;52.074;4.754;2022-09-09T00:55:07;17.10;99.90
3562;DHT22;1795;52.074;4.754;2022-09-09T00:57:38;17.10;99.90
3562;DHT22;1795;52.074;4.754;2022-09-09T01:00:22;17.10;99.90
3562;DHT22;1795;52.074;4.754;2022-09-09T01:03:06;17.00;99.90
3562;DHT22;1795;52.074;4.754;2022-09-09T01:05:44;17.00;99.90
3562;DHT22;1795;52.074;4.754;2022-09-09T01:08:25;17.00;99.90
3562;DHT22;1795;52.074;4.754;2022-09-09T01:10:56;17.00;99.90
3562;DHT22;1795;52.074;4.754;2022-09-09T01:13:27;17.00;99.90
3562;DHT22;1795;52.074;4.754;2022-09-09T01:15:57;16.90;99.90
3562;DHT22;1795;52.074;4.754;2022-09-09T01:18:30;16.90;99.90
3562;DHT22;1795;52.074;4.754;2022-09-09T01:21:09;16.90;99.90
3562;DHT22;1795;52.074;4.754;2022-09-09T01:23:51;16.90;99.90
3562;DHT22;1795;52.074;4.754;2022-09-09T01:26:30;16.90;99.90
3562;DHT22;1795;52.074;4.754;2022-09-09T01:29:00;16.90;99.90
3562;DHT22;1795;52.074;4.754;2022-09-09T01:31:32;16.80;99.90
3562;DHT22;1795;52.074;4.754;2022-09-09T01:34:02;16.80;99.90
3562;DHT22;1795;52.074;4.754;2022-09-09T01:36:35;16.80;99.90
3562;DHT22;1795;52.074;4.754;2022-09-09T01:39:05;16.80;99.90
3562;DHT22;1795;52.074;4.754;2022-09-09T01:41:34;16.80;99.90
3562;DHT22;1795;52.074;4.754;2022-09-09T01:44:02;16.80;99.90
3562;DHT22;1795;52.074;4.754;2022-09-09T01:46:30;16.80;99.90
3562;DHT22;1795;52.074;4.754;2022-09-09T01:48:59;16.80;99.90
3562;DHT22;1795;52.074;4.754;2022-09-09T01:51:28;16.80;99.90
3562;DHT22;1795;52.074;4.754;2022-09-09T01:53:56;16.80;99.90
3562;DHT22;1795;52.074;4.754;2022-09-09T01:56:33;16.70;99.90
3562;DHT22;1795;52.074;4.754;2022-09-09T01:59:13;16.80;99.90
3562;DHT22;1795;52.074;4.754;2022-09-09T02:01:52;16.80;99.90
3562;DHT22;1795;52.074;4.754;2022-09-09T02:04:37;16.70;99.90
3562;DHT22;1795;52.074;4.754;2022-09-09T02:07:12;16.70;99.90
3562;DHT22;1795;52.074;4.754;2022-09-09T02:09:43;16.70;99.90
3562;DHT22;1795;52.074;4.754;2022-09-09T02:12:14;16.70;99.90
3562;DHT22;1795;52.074;4.754;2022-09-09T02:14:49;16.70;99.90
3562;DHT22;1795;52.074;4.754;2022-09-09T02:17:22;16.70;99.90
3562;DHT22;1795;52.074;4.754;2022-09-09T02:19:56;16.70;99.90
3562;DHT22;1795;52.074;4.754;2022-09-09T02:22:27;16.70;99.90
3562;DHT22;1795;52.074;4.754;2022-09-09T02:24:58;16.60;99.90
3562;DHT22;1795;52.074;4.754;2022-09-09T02:27:27;16.60;99.90
3562;DHT22;1795;52.074;4.754;2022-09-09T02:29:58;16.60;99.90
3562;DHT22;1795;52.074;4.754;2022-09-09T02:32:29;16.60;99.90
3562;DHT22;1795;52.074;4.754;2022-09-09T02:35:02;16.60;99.90
3562;DHT22;1795;52.074;4.754;2022-09-09T02:37:34;16.60;99.90
3562;DHT22;1795;52.074;4.754;2022-09-09T02:40:03;16.60;99.90
3562;DHT22;1795;52.074;4.754;2022-09-09T02:42:32;16.50;99.90
3562;DHT22;1795;52.074;4.754;2022-09-09T02:45:08;16.60;99.90
3562;DHT22;1795;52.074;4.754;2022-09-09T02:47:39;16.50;99.90
3562;DHT22;1795;52.074;4.754;2022-09-09T02:50:13;16.50;99.90
3562;DHT22;1795;52.074;4.754;2022-09-09T02:52:56;16.50;99.90
3562;DHT22;1795;52.074;4.754;2022-09-09T02:55:35;16.50;99.90
3562;DHT22;1795;52.074;4.754;2022-09-09T02:58:07;16.50;99.90
3562;DHT22;1795;52.074;4.754;2022-09-09T03:00:39;16.50;99.90
3562;DHT22;1795;52.074;4.754;2022-09-09T03:03:08;16.50;99.90
3562;DHT22;1795;52.074;4.754;2022-09-09T03:05:36;16.50;99.90
3562;DHT22;1795;52.074;4.754;2022-09-09T03:08:05;16.50;99.90
3562;DHT22;1795;52.074;4.754;2022-09-09T03:10:33;16.40;99.90
3562;DHT22;1795;52.074;4.754;2022-09-09T03:13:02;16.40;99.90
3562;DHT22;1795;52.074;4.754;2022-09-09T03:15:31;16.40;99.90
3562;DHT22;1795;52.074;4.754;2022-09-09T03:18:01;16.40;99.90
3562;DHT22;1795;52.074;4.754;2022-09-09T03:20:30;16.40;99.90
3562;DHT22;1795;52.074;4.754;2022-09-09T03:22:59;16.40;99.90
3562;DHT22;1795;52.074;4.754;2022-09-09T03:25:28;16.30;99.90
3562;DHT22;1795;52.074;4.754;2022-09-09T03:27:57;16.30;99.90
3562;DHT22;1795;52.074;4.754;2022-09-09T03:30:26;16.30;99.90
3562;DHT22;1795;52.074;4.754;2022-09-09T03:32:55;16.30;99.90
3562;DHT22;1795;52.074;4.754;2022-09-09T03:35:24;16.30;99.90
3562;DHT22;1795;52.074;4.754;2022-09-09T03:37:52;16.20;99.90
3562;DHT22;1795;52.074;4.754;2022-09-09T03:40:21;16.20;99.90
3562;DHT22;1795;52.074;4.754;2022-09-09T03:42:49;16.20;99.90
3562;DHT22;1795;52.074;4.754;2022-09-09T03:45:17;16.10;99.90
3562;DHT22;1795;52.074;4.754;2022-09-09T03:47:45;16.20;99.90
3562;DHT22;1795;52.074;4.754;2022-09-09T03:50:13;16.10;99.90
3562;DHT22;1795;52.074;4.754;2022-09-09T03:52:43;16.10;99.90
3562;DHT22;1795;52.074;4.754;2022-09-09T03:55:11;16.10;99.90
3562;DHT22;1795;52.074;4.754;2022-09-09T03:57:38;16.10;99.90
3562;DHT22;1795;52.074;4.754;2022-09-09T04:00:08;16.10;99.90
3562;DHT22;1795;52.074;4.754;2022-09-09T04:02:36;16.00;99.90
3562;DHT22;1795;52.074;4.754;2022-09-09T04:05:05;16.00;99.90
3562;DHT22;1795;52.074;4.754;2022-09-09T04:07:33;15.90;99.90
3562;DHT22;1795;52.074;4.754;2022-09-09T04:10:03;16.00;99.90
3562;DHT22;1795;52.074;4.754;2022-09-09T04:12:31;16.00;99.90
3562;DHT22;1795;52.074;4.754;2022-09-09T04:14:59;15.90;99.90
3562;DHT22;1795;52.074;4.754;2022-09-09T04:17:28;15.90;99.90
3562;DHT22;1795;52.074;4.754;2022-09-09T04:19:56;15.90;99.90
3562;DHT22;1795;52.074;4.754;2022-09-09T04:22:24;15.90;99.90
3562;DHT22;1795;52.074;4.754;2022-09-09T04:24:52;15.80;99.90
3562;DHT22;1795;52.074;4.754;2022-09-09T04:27:21;15.80;99.90
3562;DHT22;1795;52.074;4.754;2022-09-09T04:29:49;15.80;99.90
3562;DHT22;1795;52.074;4.754;2022-09-09T04:32:17;15.80;99.90
3562;DHT22;1795;52.074;4.754;2022-09-09T04:34:45;15.70;99.90
3562;DHT22;1795;52.074;4.754;2022-09-09T04:37:14;15.70;99.90
3562;DHT22;1795;52.074;4.754;2022-09-09T04:39:43;15.70;99.90
3562;DHT22;1795;52.074;4.754;2022-09-09T04:42:11;15.70;99.90
3562;DHT22;1795;52.074;4.754;2022-09-09T04:44:41;15.70;99.90
3562;DHT22;1795;52.074;4.754;2022-09-09T04:47:27;15.70;99.90
3562;DHT22;1795;52.074;4.754;2022-09-09T04:49:55;15.60;99.90
3562;DHT22;1795;52.074;4.754;2022-09-09T04:52:23;15.60;99.90
3562;DHT22;1795;52.074;4.754;2022-09-09T04:54:51;15.60;99.90
3562;DHT22;1795;52.074;4.754;2022-09-09T04:57:20;15.60;99.90
3562;DHT22;1795;52.074;4.754;2022-09-09T04:59:49;15.60;99.90
3562;DHT22;1795;52.074;4.754;2022-09-09T05:02:17;15.50;99.90
3562;DHT22;1795;52.074;4.754;2022-09-09T05:04:45;15.60;99.90
3562;DHT22;1795;52.074;4.754;2022-09-09T05:07:13;15.50;99.90
3562;DHT22;1795;52.074;4.754;2022-09-09T05:09:41;15.60;99.90
3562;DHT22;1795;52.074;4.754;2022-09-09T05:12:09;15.50;99.90
3562;DHT22;1795;52.074;4.754;2022-09-09T05:14:37;15.50;99.90
3562;DHT22;1795;52.074;4.754;2022-09-09T05:17:07;15.50;99.90
3562;DHT22;1795;52.074;4.754;2022-09-09T05:19:34;15.50;99.90
3562;DHT22;1795;52.074;4.754;2022-09-09T05:22:02;15.50;99.90
3562;DHT22;1795;52.074;4.754;2022-09-09T05:24:30;15.50;99.90
3562;DHT22;1795;52.074;4.754;2022-09-09T05:26:59;15.40;99.90
3562;DHT22;1795;52.074;4.754;2022-09-09T05:29:29;15.50;99.90
3562;DHT22;1795;52.074;4.754;2022-09-09T05:31:58;15.50;99.90
3562;DHT22;1795;52.074;4.754;2022-09-09T05:34:28;15.50;99.90
3562;DHT22;1795;52.074;4.754;2022-09-09T05:36:56;15.50;99.90
3562;DHT22;1795;52.074;4.754;2022-09-09T05:39:24;15.50;99.90
3562;DHT22;1795;52.074;4.754;2022-09-09T05:41:52;15.40;99.90
3562;DHT22;1795;52.074;4.754;2022-09-09T05:44:22;15.40;99.90
3562;DHT22;1795;52.074;4.754;2022-09-09T05:46:54;15.40;99.90
3562;DHT22;1795;52.074;4.754;2022-09-09T05:49:22;15.40;99.90
3562;DHT22;1795;52.074;4.754;2022-09-09T05:51:51;15.40;99.90
3562;DHT22;1795;52.074;4.754;2022-09-09T05:54:19;15.40;99.90
3562;DHT22;1795;52.074;4.754;2022-09-09T05:56:47;15.40;99.90
3562;DHT22;1795;52.074;4.754;2022-09-09T05:59:17;15.40;99.90
3562;DHT22;1795;52.074;4.754;2022-09-09T06:01:45;15.40;99.90
3562;DHT22;1795;52.074;4.754;2022-09-09T06:04:14;15.40;99.90
3562;DHT22;1795;52.074;4.754;2022-09-09T06:06:42;15.40;99.90
3562;DHT22;1795;52.074;4.754;2022-09-09T06:09:11;15.50;99.90
3562;DHT22;1795;52.074;4.754;2022-09-09T06:11:41;15.50;99.90
3562;DHT22;1795;52.074;4.754;2022-09-09T06:14:09;15.50;99.90
3562;DHT22;1795;52.074;4.754;2022-09-09T06:16:37;15.50;99.90
3562;DHT22;1795;52.074;4.754;2022-09-09T06:19:05;15.60;99.90
3562;DHT22;1795;52.074;4.754;2022-09-09T06:21:35;15.60;99.90
3562;DHT22;1795;52.074;4.754;2022-09-09T06:24:04;15.60;99.90
3562;DHT22;1795;52.074;4.754;2022-09-09T06:26:36;15.60;99.90
3562;DHT22;1795;52.074;4.754;2022-09-09T06:29:07;15.60;99.90
3562;DHT22;1795;52.074;4.754;2022-09-09T06:31:36;15.70;99.90
3562;DHT22;1795;52.074;4.754;2022-09-09T06:34:06;15.70;99.90
3562;DHT22;1795;52.074;4.754;2022-09-09T06:36:35;15.70;99.90
3562;DHT22;1795;52.074;4.754;2022-09-09T06:39:04;15.80;99.90
3562;DHT22;1795;52.074;4.754;2022-09-09T06:41:41;15.80;99.90
3562;DHT22;1795;52.074;4.754;2022-09-09T06:44:09;15.80;99.90
3562;DHT22;1795;52.074;4.754;2022-09-09T06:46:38;15.90;99.90
3562;DHT22;1795;52.074;4.754;2022-09-09T06:49:08;15.90;99.90
3562;DHT22;1795;52.074;4.754;2022-09-09T06:51:37;15.90;99.90
3562;DHT22;1795;52.074;4.754;2022-09-09T06:54:09;16.00;99.90
3562;DHT22;1795;52.074;4.754;2022-09-09T06:56:40;16.00;99.90
3562;DHT22;1795;52.074;4.754;2022-09-09T06:59:09;16.00;99.90
3562;DHT22;1795;52.074;4.754;2022-09-09T07:01:39;16.10;99.90
3562;DHT22;1795;52.074;4.754;2022-09-09T07:04:08;16.10;99.90
3562;DHT22;1795;52.074;4.754;2022-09-09T07:06:39;16.10;99.90
3562;DHT22;1795;52.074;4.754;2022-09-09T07:09:09;16.20;99.90
3562;DHT22;1795;52.074;4.754;2022-09-09T07:11:40;16.20;99.90
3562;DHT22;1795;52.074;4.754;2022-09-09T07:14:09;16.20;99.90
3562;DHT22;1795;52.074;4.754;2022-09-09T07:16:39;16.30;99.90
3562;DHT22;1795;52.074;4.754;2022-09-09T07:19:08;16.30;99.90
3562;DHT22;1795;52.074;4.754;2022-09-09T07:21:37;16.30;99.90
3562;DHT22;1795;52.074;4.754;2022-09-09T07:24:07;16.40;99.90
3562;DHT22;1795;52.074;4.754;2022-09-09T07:26:38;16.40;99.90
3562;DHT22;1795;52.074;4.754;2022-09-09T07:29:08;16.40;99.90
3562;DHT22;1795;52.074;4.754;2022-09-09T07:31:38;16.40;99.90
3562;DHT22;1795;52.074;4.754;2022-09-09T07:34:26;16.50;99.90
3562;DHT22;1795;52.074;4.754;2022-09-09T07:36:54;16.50;99.90
3562;DHT22;1795;52.074;4.754;2022-09-09T07:39:24;16.50;99.90
3562;DHT22;1795;52.074;4.754;2022-09-09T07:41:51;16.60;99.90
3562;DHT22;1795;52.074;4.754;2022-09-09T07:44:23;16.60;99.90
3562;DHT22;1795;52.074;4.754;2022-09-09T07:46:53;16.70;99.90
3562;DHT22;1795;52.074;4.754;2022-09-09T07:49:21;16.70;99.90
3562;DHT22;1795;52.074;4.754;2022-09-09T07:51:56;16.80;99.90
3562;DHT22;1795;52.074;4.754;2022-09-09T07:54:24;16.80;99.90
3562;DHT22;1795;52.074;4.754;2022-09-09T07:56:52;16.80;99.90
3562;DHT22;1795;52.074;4.754;2022-09-09T07:59:22;16.90;99.90
3562;DHT22;1795;52.074;4.754;2022-09-09T08:01:51;16.90;99.90
3562;DHT22;1795;52.074;4.754;2022-09-09T08:04:22;17.00;99.90
3562;DHT22;1795;52.074;4.754;2022-09-09T08:06:52;17.00;99.90
3562;DHT22;1795;52.074;4.754;2022-09-09T08:09:21;17.10;99.90
3562;DHT22;1795;52.074;4.754;2022-09-09T08:11:51;17.10;99.90
3562;DHT22;1795;52.074;4.754;2022-09-09T08:14:19;17.10;99.90
3562;DHT22;1795;52.074;4.754;2022-09-09T08:16:49;17.20;99.90
3562;DHT22;1795;52.074;4.754;2022-09-09T08:19:20;17.20;99.90
3562;DHT22;1795;52.074;4.754;2022-09-09T08:21:49;17.20;99.90
3562;DHT22;1795;52.074;4.754;2022-09-09T08:24:17;17.20;99.90
3562;DHT22;1795;52.074;4.754;2022-09-09T08:26:47;17.20;99.90
3562;DHT22;1795;52.074;4.754;2022-09-09T08:29:17;17.30;99.90
3562;DHT22;1795;52.074;4.754;2022-09-09T08:31:46;17.30;99.90
3562;DHT22;1795;52.074;4.754;2022-09-09T08:34:15;17.30;99.90
3562;DHT22;1795;52.074;4.754;2022-09-09T08:36:45;17.30;99.90
3562;DHT22;1795;52.074;4.754;2022-09-09T08:39:14;17.30;99.90
3562;DHT22;1795;52.074;4.754;2022-09-09T08:42:13;17.40;99.90
3562;DHT22;1795;52.074;4.754;2022-09-09T08:44:55;17.40;99.90
3562;DHT22;1795;52.074;4.754;2022-09-09T08:47:35;17.40;99.90
3562;DHT22;1795;52.074;4.754;2022-09-09T08:50:19;17.40;99.90
3562;DHT22;1795;52.074;4.754;2022-09-09T08:52:54;17.40;99.90
3562;DHT22;1795;52.074;4.754;2022-09-09T08:55:31;17.50;99.90
3562;DHT22;1795;52.074;4.754;2022-09-09T08:58:06;17.50;99.90
3562;DHT22;1795;52.074;4.754;2022-09-09T09:00:44;17.50;99.90
3562;DHT22;1795;52.074;4.754;2022-09-09T09:03:24;17.50;99.90
3562;DHT22;1795;52.074;4.754;2022-09-09T09:06:04;17.50;99.90
3562;DHT22;1795;52.074;4.754;2022-09-09T09:08:41;17.60;99.90
3562;DHT22;1795;52.074;4.754;2022-09-09T09:11:11;17.60;99.90
3562;DHT22;1795;52.074;4.754;2022-09-09T09:13:44;17.60;99.90
3562;DHT22;1795;52.074;4.754;2022-09-09T09:16:19;17.60;99.90
3562;DHT22;1795;52.074;4.754;2022-09-09T09:18:49;17.60;99.90
3562;DHT22;1795;52.074;4.754;2022-09-09T09:21:24;17.70;99.90
3562;DHT22;1795;52.074;4.754;2022-09-09T09:23:56;17.70;99.90
3562;DHT22;1795;52.074;4.754;2022-09-09T09:26:29;17.70;99.90
3562;DHT22;1795;52.074;4.754;2022-09-09T09:28:59;17.70;99.90
3562;DHT22;1795;52.074;4.754;2022-09-09T09:31:29;17.70;99.90
3562;DHT22;1795;52.074;4.754;2022-09-09T09:33:58;17.70;99.90
3562;DHT22;1795;52.074;4.754;2022-09-09T09:36:38;17.70;99.90
3562;DHT22;1795;52.074;4.754;2022-09-09T09:39:07;17.70;99.90
3562;DHT22;1795;52.074;4.754;2022-09-09T09:41:56;17.70;99.90
3562;DHT22;1795;52.074;4.754;2022-09-09T09:44:32;17.70;99.90
3562;DHT22;1795;52.074;4.754;2022-09-09T09:47:07;17.70;99.90
3562;DHT22;1795;52.074;4.754;2022-09-09T09:49:36;17.80;99.90
3562;DHT22;1795;52.074;4.754;2022-09-09T09:52:06;17.80;99.90
3562;DHT22;1795;52.074;4.754;2022-09-09T09:54:38;17.80;99.90
3562;DHT22;1795;52.074;4.754;2022-09-09T09:57:11;17.80;99.90
3562;DHT22;1795;52.074;4.754;2022-09-09T09:59:39;17.80;99.90
3562;DHT22;1795;52.074;4.754;2022-09-09T10:02:15;17.80;99.90
3562;DHT22;1795;52.074;4.754;2022-09-09T10:04:43;17.80;99.90
3562;DHT22;1795;52.074;4.754;2022-09-09T10:07:19;17.80;99.90
3562;DHT22;1795;52.074;4.754;2022-09-09T10:09:51;17.90;99.90
3562;DHT22;1795;52.074;4.754;2022-09-09T10:12:29;17.90;99.90
3562;DHT22;1795;52.074;4.754;2022-09-09T10:15:05;17.90;99.90
3562;DHT22;1795;52.074;4.754;2022-09-09T10:17:39;17.90;99.90
3562;DHT22;1795;52.074;4.754;2022-09-09T10:20:23;18.00;99.90
3562;DHT22;1795;52.074;4.754;2022-09-09T10:23:06;18.00;99.90
3562;DHT22;1795;52.074;4.754;2022-09-09T10:25:50;18.10;99.90
3562;DHT22;1795;52.074;4.754;2022-09-09T10:28:36;18.10;99.90
3562;DHT22;1795;52.074;4.754;2022-09-09T10:31:19;18.20;99.90
3562;DHT22;1795;52.074;4.754;2022-09-09T10:33:59;18.20;99.90
3562;DHT22;1795;52.074;4.754;2022-09-09T10:36:31;18.30;99.90
3562;DHT22;1795;52.074;4.754;2022-09-09T10:39:03;18.30;99.90
3562;DHT22;1795;52.074;4.754;2022-09-09T10:41:42;18.30;99.90
3562;DHT22;1795;52.074;4.754;2022-09-09T10:44:21;18.40;99.90
3562;DHT22;1795;52.074;4.754;2022-09-09T10:47:19;18.40;99.90
3562;DHT22;1795;52.074;4.754;2022-09-09T10:50:05;18.40;99.90
3562;DHT22;1795;52.074;4.754;2022-09-09T10:52:42;18.50;99.90
3562;DHT22;1795;52.074;4.754;2022-09-09T10:55:18;18.50;99.90
3562;DHT22;1795;52.074;4.754;2022-09-09T10:57:47;18.60;99.90
3562;DHT22;1795;52.074;4.754;2022-09-09T11:00:18;18.60;99.90
3562;DHT22;1795;52.074;4.754;2022-09-09T11:02:50;18.60;99.90
3562;DHT22;1795;52.074;4.754;2022-09-09T11:05:23;18.60;99.90
3562;DHT22;1795;52.074;4.754;2022-09-09T11:07:59;18.70;99.90
3562;DHT22;1795;52.074;4.754;2022-09-09T11:10:41;18.70;99.90
3562;DHT22;1795;52.074;4.754;2022-09-09T11:13:14;18.70;99.90
3562;DHT22;1795;52.074;4.754;2022-09-09T11:15:49;18.70;99.90
3562;DHT22;1795;52.074;4.754;2022-09-09T11:18:20;18.70;99.90
3562;DHT22;1795;52.074;4.754;2022-09-09T11:20:53;18.70;99.90
3562;DHT22;1795;52.074;4.754;2022-09-09T11:23:26;18.80;99.90
3562;DHT22;1795;52.074;4.754;2022-09-09T11:25:59;18.80;99.90
3562;DHT22;1795;52.074;4.754;2022-09-09T11:28:40;18.80;99.90
3562;DHT22;1795;52.074;4.754;2022-09-09T11:31:27;18.80;99.90
3562;DHT22;1795;52.074;4.754;2022-09-09T11:34:14;18.90;99.90
3562;DHT22;1795;52.074;4.754;2022-09-09T11:37:00;18.90;99.90
3562;DHT22;1795;52.074;4.754;2022-09-09T11:42:42;19.00;99.90
3562;DHT22;1795;52.074;4.754;2022-09-09T11:45:19;19.00;99.90
3562;DHT22;1795;52.074;4.754;2022-09-09T11:47:52;19.10;99.90
3562;DHT22;1795;52.074;4.754;2022-09-09T11:50:29;19.10;99.90
3562;DHT22;1795;52.074;4.754;2022-09-09T11:53:22;19.10;99.90
3562;DHT22;1795;52.074;4.754;2022-09-09T11:56:08;19.10;99.90
3562;DHT22;1795;52.074;4.754;2022-09-09T11:58:41;19.20;99.90
3562;DHT22;1795;52.074;4.754;2022-09-09T12:01:25;19.20;99.90
3562;DHT22;1795;52.074;4.754;2022-09-09T12:04:06;19.20;99.90
3562;DHT22;1795;52.074;4.754;2022-09-09T12:06:43;19.30;99.90
3562;DHT22;1795;52.074;4.754;2022-09-09T12:09:19;19.30;99.90
3562;DHT22;1795;52.074;4.754;2022-09-09T12:11:49;19.30;99.90
3562;DHT22;1795;52.074;4.754;2022-09-09T12:14:35;19.40;99.90
3562;DHT22;1795;52.074;4.754;2022-09-09T12:17:17;19.40;99.90
3562;DHT22;1795;52.074;4.754;2022-09-09T12:19:46;19.40;99.90
3562;DHT22;1795;52.074;4.754;2022-09-09T12:22:21;19.40;99.90
3562;DHT22;1795;52.074;4.754;2022-09-09T12:24:56;19.40;99.90
3562;DHT22;1795;52.074;4.754;2022-09-09T12:27:29;19.40;99.90
3562;DHT22;1795;52.074;4.754;2022-09-09T12:30:03;19.40;99.90
3562;DHT22;1795;52.074;4.754;2022-09-09T12:32:33;19.30;99.90
3562;DHT22;1795;52.074;4.754;2022-09-09T12:35:03;19.30;99.90
3562;DHT22;1795;52.074;4.754;2022-09-09T12:37:35;19.30;99.90
3562;DHT22;1795;52.074;4.754;2022-09-09T12:40:05;19.30;99.90
3562;DHT22;1795;52.074;4.754;2022-09-09T12:42:40;19.20;99.90
3562;DHT22;1795;52.074;4.754;2022-09-09T12:45:17;19.20;99.90
3562;DHT22;1795;52.074;4.754;2022-09-09T12:47:50;19.20;99.90
3562;DHT22;1795;52.074;4.754;2022-09-09T12:50:21;19.10;99.90
3562;DHT22;1795;52.074;4.754;2022-09-09T12:52:51;19.10;99.90
3562;DHT22;1795;52.074;4.754;2022-09-09T12:55:21;19.10;99.90
3562;DHT22;1795;52.074;4.754;2022-09-09T12:57:52;19.00;99.90
3562;DHT22;1795;52.074;4.754;2022-09-09T13:00:24;19.00;99.90
3562;DHT22;1795;52.074;4.754;2022-09-09T13:02:54;18.90;99.90
3562;DHT22;1795;52.074;4.754;2022-09-09T13:05:24;18.90;99.90
3562;DHT22;1795;52.074;4.754;2022-09-09T13:08:00;18.80;99.90
3562;DHT22;1795;52.074;4.754;2022-09-09T13:10:32;18.80;99.90
3562;DHT22;1795;52.074;4.754;2022-09-09T13:13:20;18.80;99.90
3562;DHT22;1795;52.074;4.754;2022-09-09T13:15:53;18.80;99.90
3562;DHT22;1795;52.074;4.754;2022-09-09T13:18:23;18.70;99.90
3562;DHT22;1795;52.074;4.754;2022-09-09T13:20:52;18.70;99.90
3562;DHT22;1795;52.074;4.754;2022-09-09T13:23:21;18.70;99.90
3562;DHT22;1795;52.074;4.754;2022-09-09T13:25:56;18.70;99.90
3562;DHT22;1795;52.074;4.754;2022-09-09T13:28:27;18.70;99.90
3562;DHT22;1795;52.074;4.754;2022-09-09T13:31:03;18.70;99.90
3562;DHT22;1795;52.074;4.754;2022-09-09T13:33:33;18.70;99.90
3562;DHT22;1795;52.074;4.754;2022-09-09T13:36:04;18.70;99.90
3562;DHT22;1795;52.074;4.754;2022-09-09T13:38:35;18.60;99.90
3562;DHT22;1795;52.074;4.754;2022-09-09T13:41:05;18.60;99.90
3562;DHT22;1795;52.074;4.754;2022-09-09T13:43:36;18.60;99.90
3562;DHT22;1795;52.074;4.754;2022-09-09T13:46:25;18.60;99.90
3562;DHT22;1795;52.074;4.754;2022-09-09T13:48:55;18.60;99.90
3562;DHT22;1795;52.074;4.754;2022-09-09T13:51:32;18.60;99.90
3562;DHT22;1795;52.074;4.754;2022-09-09T13:54:01;18.70;99.90
3562;DHT22;1795;52.074;4.754;2022-09-09T13:56:29;18.80;99.90
3562;DHT22;1795;52.074;4.754;2022-09-09T13:58:57;18.80;99.90
3562;DHT22;1795;52.074;4.754;2022-09-09T14:01:27;18.90;99.90
3562;DHT22;1795;52.074;4.754;2022-09-09T14:03:56;18.90;99.90
3562;DHT22;1795;52.074;4.754;2022-09-09T14:06:24;19.00;99.90
3562;DHT22;1795;52.074;4.754;2022-09-09T14:08:52;19.00;99.90
3562;DHT22;1795;52.074;4.754;2022-09-09T14:11:21;19.10;99.90
3562;DHT22;1795;52.074;4.754;2022-09-09T14:13:49;19.10;99.90
3562;DHT22;1795;52.074;4.754;2022-09-09T14:16:17;19.10;99.90
3562;DHT22;1795;52.074;4.754;2022-09-09T14:18:47;19.20;99.90
3562;DHT22;1795;52.074;4.754;2022-09-09T14:21:15;19.20;99.90
3562;DHT22;1795;52.074;4.754;2022-09-09T14:23:43;19.20;99.90
3562;DHT22;1795;52.074;4.754;2022-09-09T14:26:11;19.20;99.90
3562;DHT22;1795;52.074;4.754;2022-09-09T14:28:40;19.10;99.90
3562;DHT22;1795;52.074;4.754;2022-09-09T14:31:21;19.20;99.90
3562;DHT22;1795;52.074;4.754;2022-09-09T14:33:51;19.10;99.90
3562;DHT22;1795;52.074;4.754;2022-09-09T14:36:19;19.00;99.90
3562;DHT22;1795;52.074;4.754;2022-09-09T14:38:47;19.00;99.90
3562;DHT22;1795;52.074;4.754;2022-09-09T14:41:17;19.00;99.90
3562;DHT22;1795;52.074;4.754;2022-09-09T14:43:46;19.00;99.90
3562;DHT22;1795;52.074;4.754;2022-09-09T14:46:15;19.00;99.90
3562;DHT22;1795;52.074;4.754;2022-09-09T14:48:43;19.00;99.90
3562;DHT22;1795;52.074;4.754;2022-09-09T14:51:15;18.90;99.90
3562;DHT22;1795;52.074;4.754;2022-09-09T14:53:43;19.00;99.90
3562;DHT22;1795;52.074;4.754;2022-09-09T14:56:13;18.90;99.90
3562;DHT22;1795;52.074;4.754;2022-09-09T14:58:42;18.90;99.90
3562;DHT22;1795;52.074;4.754;2022-09-09T15:01:11;18.90;99.90
3562;DHT22;1795;52.074;4.754;2022-09-09T15:03:41;18.90;99.90
3562;DHT22;1795;52.074;4.754;2022-09-09T15:06:13;18.90;99.90
3562;DHT22;1795;52.074;4.754;2022-09-09T15:08:43;18.90;99.90
3562;DHT22;1795;52.074;4.754;2022-09-09T15:11:13;18.90;99.90
3562;DHT22;1795;52.074;4.754;2022-09-09T15:13:42;19.00;99.90
3562;DHT22;1795;52.074;4.754;2022-09-09T15:16:11;19.10;99.90
3562;DHT22;1795;52.074;4.754;2022-09-09T15:18:40;19.10;99.90
3562;DHT22;1795;52.074;4.754;2022-09-09T15:21:09;19.20;99.90
3562;DHT22;1795;52.074;4.754;2022-09-09T15:23:39;19.40;99.90
3562;DHT22;1795;52.074;4.754;2022-09-09T15:26:07;19.40;99.90
3562;DHT22;1795;52.074;4.754;2022-09-09T15:28:36;19.50;99.90
3562;DHT22;1795;52.074;4.754;2022-09-09T15:31:06;19.60;99.90
3562;DHT22;1795;52.074;4.754;2022-09-09T15:33:35;19.70;99.90
3562;DHT22;1795;52.074;4.754;2022-09-09T15:36:15;19.80;99.90
3562;DHT22;1795;52.074;4.754;2022-09-09T15:38:44;19.90;99.90
3562;DHT22;1795;52.074;4.754;2022-09-09T15:41:13;20.00;99.90
3562;DHT22;1795;52.074;4.754;2022-09-09T15:43:43;20.10;99.90
3562;DHT22;1795;52.074;4.754;2022-09-09T15:46:23;20.20;99.90
3562;DHT22;1795;52.074;4.754;2022-09-09T15:48:55;20.20;99.90
3562;DHT22;1795;52.074;4.754;2022-09-09T15:51:24;20.30;99.90
3562;DHT22;1795;52.074;4.754;2022-09-09T15:54:12;20.30;99.90
3562;DHT22;1795;52.074;4.754;2022-09-09T15:56:43;20.30;99.90
3562;DHT22;1795;52.074;4.754;2022-09-09T15:59:11;20.40;99.90
3562;DHT22;1795;52.074;4.754;2022-09-09T16:01:41;20.40;99.90
3562;DHT22;1795;52.074;4.754;2022-09-09T16:04:10;20.40;99.90
3562;DHT22;1795;52.074;4.754;2022-09-09T16:06:38;20.40;99.90
3562;DHT22;1795;52.074;4.754;2022-09-09T16:09:07;20.40;99.90
3562;DHT22;1795;52.074;4.754;2022-09-09T16:11:38;20.40;99.90
3562;DHT22;1795;52.074;4.754;2022-09-09T16:14:06;20.30;99.90
3562;DHT22;1795;52.074;4.754;2022-09-09T16:16:35;20.30;99.90
3562;DHT22;1795;52.074;4.754;2022-09-09T16:19:05;20.30;99.90
3562;DHT22;1795;52.074;4.754;2022-09-09T16:21:34;20.30;99.90
3562;DHT22;1795;52.074;4.754;2022-09-09T16:24:05;20.20;99.90
3562;DHT22;1795;52.074;4.754;2022-09-09T16:26:35;20.20;99.90
3562;DHT22;1795;52.074;4.754;2022-09-09T16:29:05;20.20;99.90
3562;DHT22;1795;52.074;4.754;2022-09-09T16:31:33;20.20;99.90
3562;DHT22;1795;52.074;4.754;2022-09-09T16:34:01;20.10;99.90
3562;DHT22;1795;52.074;4.754;2022-09-09T16:36:32;20.10;99.90